Time;durP1;ratioP1;P1;durP2;ratioP2;P2;SDS_P1;SDS_P2;PMS_P1;PMS_P2;Temp;Humidity;BMP_temperature;BMP_pressure;BME280_temperature;BME280_humidity;BME280_pressure;Samples;Min_cycle;Max_cycle;Signal;HPM_P1;HPM_P2
2022/09/06 00:02:33;;;;;;;9.50;6.80;;;;;17.00;100989.00;;;;13037180;22;20202;-73
2022/09/06 00:07:35;;;;;;;7.30;6.57;;;;;17.00;100980.00;;;;13031196;22;20268;-74
2022/09/06 00:12:36;;;;;;;9.87;7.60;;;;;17.00;100990.00;;;;13009421;22;20228;-73
2022/09/06 00:17:37;;;;;;;7.50;6.23;;;;;17.00;100992.00;;;;13060880;22;20195;-73
2022/09/06 00:22:39;;;;;;;9.17;6.33;;;;;16.90;100981.00;;;;13081634;22;20170;-73
2022/09/06 00:27:40;;;;;;;6.90;5.33;;;;;16.90;100972.00;;;;13032208;22;20257;-73
2022/09/06 00:32:41;;;;;;;8.53;6.33;;;;;16.80;100984.00;;;;13081604;22;20224;-74
2022/09/06 00:37:43;;;;;;;11.07;6.30;;;;;16.80;100979.00;;;;13079167;22;20187;-73
2022/09/06 00:42:44;;;;;;;8.40;6.00;;;;;16.70;100976.00;;;;13036411;22;20175;-73
2022/09/06 00:47:46;;;;;;;9.80;6.23;;;;;16.70;100976.00;;;;13031706;22;20266;-74
2022/09/06 00:52:50;;;;;;;8.30;5.23;;;;;16.60;100975.00;;;;13059849;22;20171;-73
2022/09/06 00:57:52;;;;;;;5.93;4.90;;;;;16.50;100967.00;;;;13036171;22;20293;-74
2022/09/06 01:02:53;;;;;;;6.83;5.37;;;;;16.50;100967.00;;;;13081500;22;20167;-73
2022/09/06 01:08:12;;;;;;;6.13;5.53;;;;;16.40;100967.00;;;;13111144;22;20251;-73
2022/09/06 01:13:30;;;;;;;9.47;5.60;;;;;16.30;100966.00;;;;13063878;22;20603;-74
2022/09/06 01:18:38;;;;;;;6.70;5.77;;;;;16.20;100973.00;;;;13012231;22;20175;-73
2022/09/06 01:23:58;;;;;;;8.53;5.80;;;;;16.20;100984.00;;;;13110810;22;20167;-74
2022/09/06 01:29:01;;;;;;;6.70;5.77;;;;;16.20;100982.00;;;;13084232;22;20501;-73
2022/09/06 01:34:02;;;;;;;8.53;5.90;;;;;16.20;100985.00;;;;13033072;22;20506;-74
2022/09/06 01:39:03;;;;;;;6.33;5.47;;;;;16.10;100992.00;;;;13063506;22;20167;-73
2022/09/06 01:44:04;;;;;;;7.17;6.40;;;;;16.10;100980.00;;;;13012146;22;20537;-74
2022/09/06 01:49:17;;;;;;;6.83;5.30;;;;;16.00;100981.00;;;;13043871;22;20178;-73
2022/09/06 01:54:30;;;;;;;10.13;6.67;;;;;16.00;100977.00;;;;13084305;22;20176;-73
2022/09/06 01:59:54;;;;;;;8.33;5.33;;;;;16.00;100976.00;;;;13036226;22;20501;-73
2022/09/06 02:05:12;;;;;;;7.30;6.60;;;;;16.00;100975.00;;;;13034482;22;20167;-73
2022/09/06 02:10:30;;;;;;;7.37;6.00;;;;;16.00;100970.00;;;;13036044;22;20175;-74
2022/09/06 02:15:41;;;;;;;7.87;5.23;;;;;16.00;100976.00;;;;13036313;22;20201;-74
2022/09/06 02:20:52;;;;;;;7.87;6.20;;;;;16.00;100976.00;;;;13084795;22;20224;-74
2022/09/06 02:26:19;;;;;;;7.13;5.83;;;;;16.00;100982.00;;;;13062575;22;20252;-73
2022/09/06 02:31:24;;;;;;;6.73;5.83;;;;;16.10;100977.00;;;;13111802;22;20216;-73
2022/09/06 02:36:26;;;;;;;7.33;5.87;;;;;16.10;100979.00;;;;13084464;22;20551;-73
2022/09/06 02:41:28;;;;;;;6.73;6.03;;;;;16.10;100965.00;;;;13080544;22;20160;-73
2022/09/06 02:46:29;;;;;;;6.43;5.80;;;;;16.10;100979.00;;;;13112068;22;20164;-73
2022/09/06 02:51:35;;;;;;;6.10;5.50;;;;;16.10;100974.00;;;;13062890;22;20394;-73
2022/09/06 02:56:37;;;;;;;6.07;5.47;;;;;16.00;100977.00;;;;13025087;22;20254;-73
2022/09/06 03:01:38;;;;;;;7.07;6.00;;;;;16.00;100980.00;;;;13088742;22;20179;-73
2022/09/06 03:06:39;;;;;;;7.60;6.07;;;;;16.00;100985.00;;;;13037992;22;20175;-73
2022/09/06 03:11:41;;;;;;;6.70;5.93;;;;;16.00;100964.00;;;;13013566;22;20182;-73
2022/09/06 03:16:42;;;;;;;8.20;6.53;;;;;15.90;100972.00;;;;12989660;22;20226;-73
2022/09/06 03:21:43;;;;;;;7.90;7.10;;;;;15.80;100980.00;;;;13061506;22;20171;-73
2022/09/06 03:26:44;;;;;;;8.50;7.63;;;;;15.70;100979.00;;;;13087321;22;20191;-73
2022/09/06 03:31:45;;;;;;;10.17;8.73;;;;;15.70;100964.00;;;;13083785;22;20162;-73
2022/09/06 03:36:47;;;;;;;14.53;9.77;;;;;15.80;100961.00;;;;13009427;22;20206;-73
2022/09/06 03:41:48;;;;;;;10.53;8.63;;;;;15.80;100961.00;;;;13008475;22;20199;-73
2022/09/06 03:46:50;;;;;;;11.93;9.67;;;;;15.80;100967.00;;;;13079335;22;20220;-73
2022/09/06 03:51:52;;;;;;;10.93;9.43;;;;;15.80;100967.00;;;;13055204;22;20163;-74
2022/09/06 03:56:53;;;;;;;14.10;10.43;;;;;15.80;100964.00;;;;13060261;22;20191;-73
2022/09/06 04:01:55;;;;;;;11.80;10.33;;;;;15.70;100969.00;;;;13109209;22;20179;-73
2022/09/06 04:06:56;;;;;;;12.70;10.97;;;;;15.70;100962.00;;;;13009988;22;20167;-73
2022/09/06 04:11:57;;;;;;;14.87;10.53;;;;;15.60;100956.00;;;;13037644;22;20198;-73
2022/09/06 04:16:58;;;;;;;13.33;10.90;;;;;15.50;100957.00;;;;13036316;22;20428;-73
2022/09/06 04:21:59;;;;;;;13.83;10.63;;;;;15.40;100954.00;;;;13010850;22;20203;-73
2022/09/06 04:27:00;;;;;;;14.33;10.50;;;;;15.40;100945.00;;;;13079392;22;20200;-73
2022/09/06 04:32:02;;;;;;;17.63;10.87;;;;;15.30;100937.00;;;;13037161;22;20514;-73
2022/09/06 04:37:03;;;;;;;16.70;11.80;;;;;15.20;100940.00;;;;13064056;22;20706;-73
2022/09/06 04:42:04;;;;;;;13.17;10.83;;;;;15.10;100945.00;;;;13111622;22;20186;-74
2022/09/06 04:47:13;;;;;;;15.23;12.00;;;;;15.10;100943.00;;;;13111006;22;20167;-73
2022/09/06 04:52:15;;;;;;;13.60;11.90;;;;;15.00;100954.00;;;;13038281;22;20188;-73
2022/09/06 04:57:16;;;;;;;14.57;11.23;;;;;15.00;100958.00;;;;13059899;22;20202;-73
2022/09/06 05:02:17;;;;;;;12.43;10.97;;;;;14.90;100966.00;;;;13083808;22;20163;-73
2022/09/06 05:07:19;;;;;;;15.73;11.97;;;;;14.90;100960.00;;;;13084666;22;20553;-73
2022/09/06 05:12:20;;;;;;;17.40;12.27;;;;;14.90;100961.00;;;;13064523;22;20175;-74
2022/09/06 05:17:21;;;;;;;14.17;12.63;;;;;14.90;100962.00;;;;13036897;22;20191;-73
2022/09/06 05:22:22;;;;;;;22.47;12.97;;;;;15.00;100956.00;;;;13059627;22;20167;-74
2022/09/06 05:27:24;;;;;;;19.80;12.70;;;;;15.10;100956.00;;;;13063475;22;20199;-74
2022/09/06 05:32:25;;;;;;;20.17;14.20;;;;;15.30;100963.00;;;;13084276;22;20164;-73
2022/09/06 05:37:26;;;;;;;15.87;14.27;;;;;15.50;100947.00;;;;13036912;22;20195;-74
2022/09/06 05:42:27;;;;;;;18.80;14.40;;;;;15.70;100946.00;;;;13038720;22;20615;-74
2022/09/06 05:47:32;;;;;;;19.27;13.73;;;;;15.90;100955.00;;;;13038320;22;20189;-74
2022/09/06 05:52:33;;;;;;;14.43;12.33;;;;;16.30;100952.00;;;;13082309;22;20226;-74
2022/09/06 05:57:35;;;;;;;13.40;11.73;;;;;16.60;100942.00;;;;13062122;22;20199;-74
2022/09/06 06:02:36;;;;;;;17.20;12.87;;;;;17.00;100948.00;;;;13056963;22;20537;-74
2022/09/06 06:07:37;;;;;;;20.93;10.63;;;;;17.20;100940.00;;;;13061784;22;20262;-74
2022/09/06 06:12:38;;;;;;;16.07;10.80;;;;;17.50;100937.00;;;;13063464;22;20168;-74
2022/09/06 06:17:40;;;;;;;14.48;10.10;;;;;17.70;100949.00;;;;13036581;22;20210;-74
2022/09/06 06:22:41;;;;;;;12.07;8.07;;;;;18.00;100948.00;;;;13036797;22;20206;-74
2022/09/06 06:27:42;;;;;;;8.18;6.70;;;;;18.40;100939.00;;;;13110431;22;20290;-74
2022/09/06 06:32:43;;;;;;;7.88;5.10;;;;;18.90;100941.00;;;;13059426;22;20195;-74
2022/09/06 06:37:44;;;;;;;5.15;3.97;;;;;19.40;100943.00;;;;13035854;22;20279;-75
2022/09/06 06:42:46;;;;;;;5.53;3.45;;;;;19.60;100935.00;;;;13059078;22;20269;-75
2022/09/06 06:47:50;;;;;;;6.03;3.35;;;;;19.80;100932.00;;;;13109883;22;20163;-75
2022/09/06 06:52:53;;;;;;;4.43;2.80;;;;;20.20;100927.00;;;;13103193;22;20400;-75
2022/09/06 06:57:54;;;;;;;4.68;2.53;;;;;20.60;100920.00;;;;13061583;22;20199;-75
2022/09/06 07:02:55;;;;;;;3.20;2.70;;;;;20.50;100961.00;;;;13033479;22;20167;-76
2022/09/06 07:07:56;;;;;;;4.03;2.40;;;;;20.50;100967.00;;;;13030960;22;20172;-75
2022/09/06 07:12:58;;;;;;;6.25;2.53;;;;;20.70;100965.00;;;;13034529;22;20486;-75
2022/09/06 07:18:00;;;;;;;5.28;2.40;;;;;20.70;100969.00;;;;13108252;22;20219;-75
2022/09/06 07:23:04;;;;;;;3.78;2.45;;;;;20.80;100971.00;;;;13029113;22;20180;-74
2022/09/06 07:28:25;;;;;;;4.18;2.28;;;;;20.90;100978.00;;;;13031741;22;20202;-74
2022/09/06 07:33:27;;;;;;;4.15;2.33;;;;;21.00;100975.00;;;;13080661;22;20169;-74
2022/09/06 07:38:29;;;;;;;5.90;2.35;;;;;21.20;100983.00;;;;13105784;22;20191;-75
2022/09/06 07:43:31;;;;;;;4.05;2.65;;;;;21.40;100976.00;;;;13105096;22;20164;-75
2022/09/06 07:48:35;;;;;;;5.32;2.55;;;;;21.70;100978.00;;;;13056779;22;20217;-75
2022/09/06 07:53:38;;;;;;;4.72;2.72;;;;;21.90;100978.00;;;;13031072;22;20177;-75
2022/09/06 07:58:40;;;;;;;9.07;2.75;;;;;22.10;100974.00;;;;13105460;22;20814;-75
2022/09/06 08:03:41;;;;;;;5.22;2.40;;;;;22.40;100965.00;;;;13078552;22;20167;-75
2022/09/06 08:08:42;;;;;;;4.85;2.42;;;;;22.60;100970.00;;;;13077920;22;20251;-75
2022/09/06 08:14:02;;;;;;;9.30;3.17;;;;;22.80;100978.00;;;;13081690;22;20217;-74
2022/09/06 08:19:09;;;;;;;3.28;2.33;;;;;23.00;100996.00;;;;13058793;22;20172;-74
2022/09/06 08:24:10;;;;;;;5.85;2.78;;;;;23.30;100985.00;;;;13024449;22;20171;-74
2022/09/06 08:29:12;;;;;;;3.60;2.58;;;;;23.80;100970.00;;;;13108836;22;20262;-74
2022/09/06 08:34:14;;;;;;;4.82;2.35;;;;;24.30;100980.00;;;;13060833;22;20201;-75
2022/09/06 08:39:16;;;;;;;5.82;2.67;;;;;24.80;100987.00;;;;13058741;22;20167;-74
2022/09/06 08:44:23;;;;;;;6.25;2.65;;;;;25.30;100976.00;;;;13035534;22;20175;-75
2022/09/06 08:49:46;;;;;;;4.03;2.38;;;;;25.80;100978.00;;;;13014347;22;20175;-75
2022/09/06 08:55:34;;;;;;;8.27;2.85;;;;;26.20;100974.00;;;;12989265;22;20193;-74
2022/09/06 09:00:37;;;;;;;4.93;2.70;;;;;26.60;100990.00;;;;12987327;22;20669;-74
2022/09/06 09:05:40;;;;;;;7.50;3.30;;;;;26.90;100990.00;;;;13057280;22;20175;-74
2022/09/06 09:10:46;;;;;;;4.28;3.08;;;;;27.30;100993.00;;;;13080232;22;20163;-74
2022/09/06 09:15:48;;;;;;;3.83;2.97;;;;;27.60;100996.00;;;;13108474;22;20757;-74
2022/09/06 09:20:49;;;;;;;7.38;3.75;;;;;27.80;100985.00;;;;13056484;22;20193;-75
2022/09/06 09:25:54;;;;;;;7.00;3.40;;;;;27.50;100972.00;;;;13081974;22;20263;-75
2022/09/06 09:30:55;;;;;;;7.43;3.88;;;;;28.20;100967.00;;;;13058156;22;20203;-74
2022/09/06 09:36:00;;;;;;;6.85;4.10;;;;;28.70;100977.00;;;;13105161;22;20191;-75
2022/09/06 09:41:05;;;;;;;6.00;4.25;;;;;29.00;100973.00;;;;13108622;22;20160;-75
2022/09/06 09:46:09;;;;;;;9.65;4.82;;;;;29.30;100978.00;;;;13081071;22;20170;-75
2022/09/06 09:51:21;;;;;;;8.40;4.43;;;;;29.50;100984.00;;;;13034872;22;20171;-74
2022/09/06 09:56:46;;;;;;;9.07;4.55;;;;;29.70;100981.00;;;;13060030;22;20260;-75
2022/09/06 10:01:48;;;;;;;4.97;4.25;;;;;29.80;100981.00;;;;13080010;22;20159;-75
2022/09/06 10:06:49;;;;;;;6.43;4.55;;;;;29.70;100981.00;;;;13105353;22;20309;-74
2022/09/06 10:12:30;;;;;;;8.70;4.25;;;;;29.70;100976.00;;;;13060732;22;20182;-74
2022/09/06 10:17:37;;;;;;;6.03;3.38;;;;;29.60;100980.00;;;;13106555;22;20191;-74
2022/09/06 10:23:01;;;;;;;3.80;2.72;;;;;29.90;100981.00;;;;13053977;22;20170;-75
2022/09/06 10:28:30;;;;;;;4.05;2.70;;;;;30.30;100979.00;;;;13033543;22;20191;-75
2022/09/06 10:33:57;;;;;;;4.80;2.17;;;;;30.80;100974.00;;;;13034206;22;20180;-75
2022/09/06 10:39:02;;;;;;;9.80;2.30;;;;;30.90;100975.00;;;;13059414;22;20182;-75
2022/09/06 10:44:39;;;;;;;2.60;1.60;;;;;30.90;100965.00;;;;13081022;22;20170;-75
2022/09/06 10:49:47;;;;;;;2.03;1.65;;;;;31.10;100953.00;;;;13002796;22;20182;-75
2022/09/06 10:54:49;;;;;;;5.30;2.10;;;;;31.20;100954.00;;;;13105905;22;20550;-75
2022/09/06 11:00:00;;;;;;;2.60;1.75;;;;;31.60;100946.00;;;;13059675;22;20197;-75
2022/09/06 11:05:07;;;;;;;2.25;1.50;;;;;31.90;100949.00;;;;13055277;22;20221;-76
2022/09/06 11:10:44;;;;;;;4.20;1.90;;;;;32.40;100962.00;;;;13024291;22;20628;-75
2022/09/06 11:15:47;;;;;;;4.32;1.55;;;;;32.50;100966.00;;;;13107218;22;20270;-75
2022/09/06 11:21:16;;;;;;;1.80;1.70;;;;;32.60;100958.00;;;;13071391;22;20164;-75
2022/09/06 11:26:30;;;;;;;5.30;1.88;;;;;32.70;100958.00;;;;13108091;22;20275;-75
2022/09/06 11:31:47;;;;;;;2.35;1.67;;;;;32.80;100965.00;;;;13109162;22;20167;-75
2022/09/06 11:37:33;;;;;;;3.15;1.83;;;;;32.70;100961.00;;;;13086468;22;20195;-75
2022/09/06 11:43:01;;;;;;;2.03;1.52;;;;;32.60;100951.00;;;;13105643;22;20246;-75
2022/09/06 11:48:33;;;;;;;2.63;1.75;;;;;32.00;100961.00;;;;13007707;22;20459;-75
2022/09/06 11:53:58;;;;;;;5.63;2.15;;;;;32.00;100951.00;;;;13080488;22;20163;-75
2022/09/06 11:59:22;;;;;;;5.32;1.83;;;;;32.40;100956.00;;;;13077066;22;20191;-75
2022/09/06 12:05:03;;;;;;;3.45;2.03;;;;;32.70;100947.00;;;;13110207;22;20174;-75
2022/09/06 12:10:46;;;;;;;4.00;1.98;;;;;32.70;100933.00;;;;13060099;22;20651;-74
2022/09/06 12:15:53;;;;;;;5.10;1.83;;;;;32.40;100932.00;;;;13053327;22;20336;-75
2022/09/06 12:20:55;;;;;;;3.17;1.70;;;;;32.70;100910.00;;;;13033020;22;20167;-76
2022/09/06 12:25:57;;;;;;;2.55;1.52;;;;;33.00;100920.00;;;;13082591;22;20187;-75
2022/09/06 12:30:59;;;;;;;2.20;1.38;;;;;33.20;100917.00;;;;13060498;22;20167;-75
2022/09/06 12:36:21;;;;;;;3.83;1.40;;;;;33.10;100898.00;;;;13109975;22;20765;-75
2022/09/06 12:41:24;;;;;;;1.85;1.75;;;;;33.30;100902.00;;;;13034523;22;20172;-75
2022/09/06 12:46:28;;;;;;;2.15;1.55;;;;;33.20;100901.00;;;;13060083;22;20164;-75
2022/09/06 12:51:30;;;;;;;3.17;1.60;;;;;32.40;100896.00;;;;13034476;22;20203;-75
2022/09/06 12:56:33;;;;;;;5.53;2.00;;;;;32.70;100886.00;;;;13111250;22;20226;-75
2022/09/06 13:01:35;;;;;;;3.67;1.60;;;;;32.90;100881.00;;;;13063676;22;20262;-75
2022/09/06 13:06:41;;;;;;;5.72;1.70;;;;;32.50;100876.00;;;;13074760;22;20167;-75
2022/09/06 13:11:47;;;;;;;5.00;1.40;;;;;33.20;100871.00;;;;13105621;22;20167;-75
2022/09/06 13:16:50;;;;;;;3.50;1.58;;;;;33.60;100877.00;;;;13048088;22;20225;-75
2022/09/06 13:21:51;;;;;;;5.63;1.60;;;;;33.50;100866.00;;;;13108741;22;20206;-75
2022/09/06 13:26:53;;;;;;;4.78;1.75;;;;;34.80;100871.00;;;;13057304;22;20183;-75
2022/09/06 13:31:56;;;;;;;2.08;1.50;;;;;36.00;100863.00;;;;13035751;22;20178;-75
2022/09/06 13:37:04;;;;;;;5.20;1.80;;;;;36.30;100853.00;;;;13083329;22;20275;-75
2022/09/06 13:42:09;;;;;;;4.70;1.90;;;;;36.70;100853.00;;;;13101340;22;20167;-75
2022/09/06 13:47:10;;;;;;;4.43;1.50;;;;;36.90;100846.00;;;;13059729;22;20893;-75
2022/09/06 13:52:12;;;;;;;3.88;1.75;;;;;37.80;100844.00;;;;13053596;22;20175;-75
2022/09/06 13:57:14;;;;;;;6.10;1.50;;;;;35.20;100839.00;;;;13109579;22;20830;-75
2022/09/06 14:02:18;;;;;;;3.35;1.70;;;;;33.50;100835.00;;;;13108651;22;20159;-75
2022/09/06 14:07:19;;;;;;;4.75;1.55;;;;;33.30;100810.00;;;;13081651;22;20163;-75
2022/09/06 14:12:20;;;;;;;6.68;1.60;;;;;35.70;100821.00;;;;13105016;22;20236;-74
2022/09/06 14:17:22;;;;;;;3.58;1.70;;;;;37.40;100791.00;;;;13079860;22;20191;-74
2022/09/06 14:22:24;;;;;;;2.47;1.52;;;;;34.10;100813.00;;;;13058629;22;20194;-74
2022/09/06 14:27:26;;;;;;;2.90;1.20;;;;;32.00;100816.00;;;;13085725;22;20694;-74
2022/09/06 14:32:27;;;;;;;5.25;1.50;;;;;31.00;100819.00;;;;13100830;22;20163;-74
2022/09/06 14:37:28;;;;;;;5.28;1.67;;;;;30.70;100807.00;;;;13079918;22;20194;-75
2022/09/06 14:42:29;;;;;;;1.35;1.20;;;;;30.40;100812.00;;;;13109832;22;20159;-75
2022/09/06 14:47:32;;;;;;;3.00;1.33;;;;;30.00;100797.00;;;;13059416;22;20636;-75
2022/09/06 14:52:33;;;;;;;4.00;2.13;;;;;29.70;100802.00;;;;13057917;22;20163;-74
2022/09/06 14:57:34;;;;;;;4.93;1.60;;;;;29.00;100804.00;;;;13107946;22;20194;-75
2022/09/06 15:02:36;;;;;;;2.72;1.40;;;;;28.60;100804.00;;;;13047394;22;20222;-74
2022/09/06 15:07:37;;;;;;;3.33;1.40;;;;;28.30;100806.00;;;;13080795;22;20168;-75
2022/09/06 15:12:39;;;;;;;5.95;1.15;;;;;28.10;100795.00;;;;13055468;22;20611;-75
2022/09/06 15:17:40;;;;;;;5.03;1.63;;;;;28.00;100789.00;;;;13074638;22;20194;-74
2022/09/06 15:22:41;;;;;;;2.83;1.50;;;;;27.70;100788.00;;;;13079715;22;20163;-73
2022/09/06 15:27:42;;;;;;;2.95;1.27;;;;;27.50;100784.00;;;;13033014;22;20214;-74
2022/09/06 15:32:44;;;;;;;5.53;1.70;;;;;27.20;100764.00;;;;13031037;22;20170;-74
2022/09/06 15:37:46;;;;;;;3.45;1.42;;;;;27.00;100765.00;;;;13034507;22;20187;-73
2022/09/06 15:42:47;;;;;;;5.70;1.50;;;;;26.90;100761.00;;;;13105869;22;20165;-74
2022/09/06 15:47:48;;;;;;;4.38;1.52;;;;;26.70;100765.00;;;;13059834;22;20171;-74
2022/09/06 15:52:49;;;;;;;1.67;1.45;;;;;26.50;100766.00;;;;13030835;22;20202;-74
2022/09/06 15:57:50;;;;;;;1.50;1.40;;;;;26.40;100747.00;;;;13061964;22;20202;-74
2022/09/06 16:02:52;;;;;;;2.40;1.10;;;;;26.60;100745.00;;;;13080781;22;20537;-74
2022/09/06 16:07:53;;;;;;;3.60;1.30;;;;;26.50;100741.00;;;;13086111;22;20837;-74
2022/09/06 16:12:55;;;;;;;2.63;1.50;;;;;26.20;100733.00;;;;13059451;22;20171;-74
2022/09/06 16:17:57;;;;;;;2.50;1.45;;;;;26.30;100728.00;;;;13108267;22;20213;-74
2022/09/06 16:22:58;;;;;;;2.10;1.65;;;;;26.40;100728.00;;;;13104477;22;20495;-74
2022/09/06 16:27:59;;;;;;;2.38;1.20;;;;;26.50;100724.00;;;;13079796;22;20180;-74
2022/09/06 16:33:00;;;;;;;3.25;1.30;;;;;26.60;100736.00;;;;13079953;22;20224;-74
2022/09/06 16:38:01;;;;;;;3.42;1.48;;;;;26.60;100723.00;;;;13080905;22;20191;-74
2022/09/06 16:43:03;;;;;;;2.97;1.73;;;;;26.70;100719.00;;;;13016629;22;20683;-74
2022/09/06 16:48:05;;;;;;;3.60;1.50;;;;;26.80;100720.00;;;;13021237;22;20805;-74
2022/09/06 16:53:07;;;;;;;4.95;1.15;;;;;26.70;100727.00;;;;13057258;22;20238;-74
2022/09/06 16:58:08;;;;;;;3.05;1.27;;;;;26.40;100717.00;;;;13059777;22;20279;-74
2022/09/06 17:03:14;;;;;;;3.40;1.58;;;;;26.00;100712.00;;;;13082026;22;20159;-74
2022/09/06 17:08:15;;;;;;;2.03;1.50;;;;;25.60;100709.00;;;;13071894;22;20187;-74
2022/09/06 17:13:16;;;;;;;1.75;1.40;;;;;25.20;100706.00;;;;13055723;22;20171;-74
2022/09/06 17:18:18;;;;;;;3.25;1.58;;;;;24.80;100703.00;;;;13107527;22;20183;-74
2022/09/06 17:23:20;;;;;;;1.85;1.38;;;;;24.50;100702.00;;;;13054589;22;20163;-74
2022/09/06 17:28:22;;;;;;;1.92;1.40;;;;;24.30;100695.00;;;;13054245;22;20187;-74
2022/09/06 17:33:23;;;;;;;2.08;1.50;;;;;24.20;100686.00;;;;13008304;22;20171;-74
2022/09/06 17:38:24;;;;;;;3.22;1.60;;;;;24.10;100685.00;;;;13035351;22;20222;-74
2022/09/06 17:43:26;;;;;;;10.23;2.20;;;;;23.90;100674.00;;;;13055917;22;20166;-74
2022/09/06 17:48:27;;;;;;;5.78;2.10;;;;;23.80;100671.00;;;;13066682;22;20203;-74
2022/09/06 17:53:29;;;;;;;2.92;1.63;;;;;23.70;100672.00;;;;13067354;22;20208;-74
2022/09/06 17:58:32;;;;;;;4.38;1.83;;;;;23.50;100677.00;;;;13054049;22;20191;-73
2022/09/06 18:03:33;;;;;;;3.30;1.75;;;;;23.30;100678.00;;;;13023446;22;20199;-74
2022/09/06 18:08:37;;;;;;;3.17;1.73;;;;;23.20;100676.00;;;;13034328;22;20707;-74
2022/09/06 18:13:38;;;;;;;3.53;2.10;;;;;23.10;100665.00;;;;13060056;22;20252;-74
2022/09/06 18:18:40;;;;;;;8.57;2.85;;;;;23.00;100673.00;;;;13047325;22;20226;-74
2022/09/06 18:23:41;;;;;;;3.80;2.13;;;;;22.90;100669.00;;;;13007937;22;20207;-74
2022/09/06 18:28:43;;;;;;;5.45;1.85;;;;;22.80;100664.00;;;;13018572;22;20350;-73
2022/09/06 18:33:44;;;;;;;3.72;1.85;;;;;22.80;100668.00;;;;13039852;22;20203;-74
2022/09/06 18:38:46;;;;;;;2.95;1.98;;;;;22.70;100659.00;;;;13017541;22;20209;-74
2022/09/06 18:43:47;;;;;;;4.55;2.40;;;;;22.60;100643.00;;;;13073673;22;20221;-73
2022/09/06 18:48:48;;;;;;;3.58;2.30;;;;;22.40;100638.00;;;;13090256;22;20265;-74
2022/09/06 18:53:51;;;;;;;10.65;2.78;;;;;22.20;100632.00;;;;13053477;22;20204;-74
2022/09/06 18:58:59;;;;;;;4.53;2.35;;;;;22.10;100631.00;;;;13042240;22;20199;-73
2022/09/06 19:04:01;;;;;;;3.53;2.35;;;;;21.90;100630.00;;;;12983708;22;20250;-74
2022/09/06 19:09:09;;;;;;;6.22;2.10;;;;;21.80;100626.00;;;;13022676;22;20208;-73
2022/09/06 19:14:10;;;;;;;2.85;2.15;;;;;21.80;100632.00;;;;13064840;22;20207;-73
2022/09/06 19:19:12;;;;;;;5.40;2.35;;;;;21.70;100627.00;;;;13027034;22;20238;-73
2022/09/06 19:24:14;;;;;;;4.65;2.20;;;;;21.70;100631.00;;;;13017267;22;20199;-73
2022/09/06 19:29:17;;;;;;;7.43;2.80;;;;;21.70;100628.00;;;;13060321;22;20187;-73
2022/09/06 19:34:18;;;;;;;2.72;2.35;;;;;21.70;100630.00;;;;13053377;22;20179;-73
2022/09/06 19:39:20;;;;;;;8.95;3.30;;;;;21.70;100629.00;;;;13111380;22;20190;-73
2022/09/06 19:44:21;;;;;;;4.10;2.85;;;;;21.70;100630.00;;;;13109724;22;20209;-73
2022/09/06 19:49:23;;;;;;;4.80;2.40;;;;;21.60;100630.00;;;;13060260;22;20175;-74
2022/09/06 19:54:24;;;;;;;7.38;2.78;;;;;21.60;100630.00;;;;13023461;22;20200;-73
2022/09/06 19:59:25;;;;;;;4.95;3.17;;;;;21.50;100633.00;;;;13025195;22;20210;-73
2022/09/06 20:04:27;;;;;;;3.00;2.67;;;;;21.40;100623.00;;;;13025594;22;20203;-73
2022/09/06 20:09:28;;;;;;;3.95;2.80;;;;;21.40;100626.00;;;;13050678;22;20512;-73
2022/09/06 20:14:30;;;;;;;5.43;2.45;;;;;21.30;100625.00;;;;13106264;22;20256;-73
2022/09/06 20:19:31;;;;;;;4.78;3.17;;;;;21.30;100612.00;;;;13065981;22;20237;-73
2022/09/06 20:24:32;;;;;;;4.63;3.05;;;;;21.40;100592.00;;;;13025970;22;20480;-73
2022/09/06 20:29:33;;;;;;;3.92;2.92;;;;;21.40;100593.00;;;;13107529;22;20187;-73
2022/09/06 20:34:35;;;;;;;4.85;2.83;;;;;21.30;100610.00;;;;13031392;22;20220;-73
2022/09/06 20:39:36;;;;;;;4.53;3.45;;;;;21.20;100600.00;;;;13106692;22;20163;-73
2022/09/06 20:44:37;;;;;;;5.53;3.10;;;;;21.00;100603.00;;;;13059792;22;20206;-73
2022/09/06 20:49:38;;;;;;;7.10;3.55;;;;;21.00;100601.00;;;;13081882;22;20163;-73
2022/09/06 20:54:39;;;;;;;6.85;2.75;;;;;21.00;100592.00;;;;13084067;22;20210;-73
2022/09/06 20:59:41;;;;;;;10.85;3.75;;;;;20.80;100591.00;;;;13078976;22;20645;-73
2022/09/06 21:04:42;;;;;;;7.35;3.70;;;;;20.70;100606.00;;;;13078176;22;20765;-73
2022/09/06 21:09:43;;;;;;;5.90;3.97;;;;;20.70;100638.00;;;;13001541;22;20166;-74
2022/09/06 21:14:44;;;;;;;8.55;5.28;;;;;20.70;100698.00;;;;13107569;22;20213;-74
2022/09/06 21:19:46;;;;;;;8.80;4.60;;;;;20.80;100762.00;;;;13058176;22;20615;-73
2022/09/06 21:24:47;;;;;;;13.85;6.72;;;;;20.50;100789.00;;;;13056074;22;20163;-73
2022/09/06 21:29:48;;;;;;;8.52;4.63;;;;;19.30;100838.00;;;;13102666;22;20640;-74
2022/09/06 21:34:49;;;;;;;8.45;3.42;;;;;18.40;100852.00;;;;13035757;22;20191;-74
2022/09/06 21:39:51;;;;;;;6.53;3.95;;;;;17.90;100905.00;;;;13084480;22;20521;-73
2022/09/06 21:44:52;;;;;;;9.23;4.43;;;;;17.70;100918.00;;;;13082821;22;20199;-72
2022/09/06 21:49:53;;;;;;;9.30;5.28;;;;;17.40;100889.00;;;;13026764;22;20803;-73
2022/09/06 21:54:55;;;;;;;10.73;6.88;;;;;17.20;100892.00;;;;13033467;22;20290;-73
2022/09/06 21:59:56;;;;;;;10.63;6.90;;;;;17.20;100890.00;;;;13079613;22;20211;-73
2022/09/06 22:04:57;;;;;;;14.15;8.23;;;;;17.30;100884.00;;;;13080564;22;20163;-73
2022/09/06 22:09:59;;;;;;;14.70;11.32;;;;;17.30;100880.00;;;;13089397;22;20308;-73
2022/09/06 22:15:00;;;;;;;17.60;11.57;;;;;17.30;100863.00;;;;13083479;22;20183;-73
2022/09/06 22:20:06;;;;;;;13.85;12.38;;;;;17.30;100836.00;;;;13082034;22;20164;-73
2022/09/06 22:25:07;;;;;;;16.38;13.85;;;;;17.30;100855.00;;;;13108603;22;20233;-73
2022/09/06 22:30:09;;;;;;;15.65;13.98;;;;;17.30;100850.00;;;;13035572;22;20172;-73
2022/09/06 22:35:10;;;;;;;18.13;16.48;;;;;17.30;100837.00;;;;13061511;22;20191;-73
2022/09/06 22:40:11;;;;;;;19.35;17.33;;;;;17.30;100819.00;;;;13060990;22;20168;-73
2022/09/06 22:45:13;;;;;;;19.25;17.23;;;;;17.20;100818.00;;;;13108153;22;20183;-73
2022/09/06 22:50:14;;;;;;;20.48;18.77;;;;;17.10;100805.00;;;;13034149;22;20179;-73
2022/09/06 22:55:15;;;;;;;21.98;19.98;;;;;17.10;100785.00;;;;13015748;22;20574;-73
2022/09/06 23:00:17;;;;;;;20.80;18.90;;;;;17.00;100776.00;;;;13105256;22;20174;-73
2022/09/06 23:05:20;;;;;;;19.00;17.20;;;;;16.90;100778.00;;;;13052968;22;20172;-73
2022/09/06 23:10:22;;;;;;;23.55;21.33;;;;;16.80;100765.00;;;;13110031;22;20179;-73
2022/09/06 23:15:24;;;;;;;22.45;20.45;;;;;16.80;100771.00;;;;13084006;22;20184;-73
2022/09/06 23:20:25;;;;;;;22.92;21.02;;;;;16.70;100754.00;;;;13035870;22;20258;-73
2022/09/06 23:25:26;;;;;;;25.42;23.20;;;;;16.70;100740.00;;;;13083096;22;20191;-73
2022/09/06 23:30:28;;;;;;;26.38;23.98;;;;;16.70;100754.00;;;;13035325;22;20171;-73
2022/09/06 23:35:29;;;;;;;25.73;23.23;;;;;16.70;100763.00;;;;13108375;22;20183;-73
2022/09/06 23:40:30;;;;;;;26.07;23.57;;;;;16.60;100770.00;;;;13084239;22;20206;-73
2022/09/06 23:45:31;;;;;;;23.15;21.02;;;;;16.60;100757.00;;;;13062035;22;20171;-73
2022/09/06 23:50:32;;;;;;;24.83;22.47;;;;;16.60;100765.00;;;;13035354;22;20614;-73
2022/09/06 23:55:34;;;;;;;27.25;24.85;;;;;16.60;100753.00;;;;13036018;22;20198;-73
